sensor_id;sensor_type;location;lat;lon;timestamp;P1;durP1;ratioP1;P2;durP2;ratioP2
3465;SDS011;1747;48.884;9.160;2022-07-10T00:02:03;9.50;;;4.20;;
3465;SDS011;1747;48.884;9.160;2022-07-10T00:04:30;7.63;;;4.43;;
3465;SDS011;1747;48.884;9.160;2022-07-10T00:06:57;7.75;;;3.97;;
3465;SDS011;1747;48.884;9.160;2022-07-10T00:09:28;6.22;;;3.78;;
3465;SDS011;1747;48.884;9.160;2022-07-10T00:12:01;4.78;;;4.18;;
3465;SDS011;1747;48.884;9.160;2022-07-10T00:14:29;6.38;;;4.07;;
3465;SDS011;1747;48.884;9.160;2022-07-10T00:16:55;5.55;;;4.40;;
3465;SDS011;1747;48.884;9.160;2022-07-10T00:19:22;8.90;;;4.07;;
3465;SDS011;1747;48.884;9.160;2022-07-10T00:21:49;4.25;;;3.65;;
3465;SDS011;1747;48.884;9.160;2022-07-10T00:24:16;5.60;;;4.22;;
3465;SDS011;1747;48.884;9.160;2022-07-10T00:26:44;5.00;;;4.07;;
3465;SDS011;1747;48.884;9.160;2022-07-10T00:29:12;4.35;;;3.95;;
3465;SDS011;1747;48.884;9.160;2022-07-10T00:31:39;5.78;;;4.22;;
3465;SDS011;1747;48.884;9.160;2022-07-10T00:34:06;4.40;;;3.80;;
3465;SDS011;1747;48.884;9.160;2022-07-10T00:36:33;8.80;;;4.20;;
3465;SDS011;1747;48.884;9.160;2022-07-10T00:39:00;9.93;;;4.00;;
3465;SDS011;1747;48.884;9.160;2022-07-10T00:41:26;4.60;;;3.72;;
3465;SDS011;1747;48.884;9.160;2022-07-10T00:43:55;6.55;;;4.10;;
3465;SDS011;1747;48.884;9.160;2022-07-10T00:46:23;5.35;;;3.88;;
3465;SDS011;1747;48.884;9.160;2022-07-10T00:48:51;5.72;;;4.03;;
3465;SDS011;1747;48.884;9.160;2022-07-10T00:51:19;5.65;;;3.60;;
3465;SDS011;1747;48.884;9.160;2022-07-10T00:53:47;4.82;;;4.30;;
3465;SDS011;1747;48.884;9.160;2022-07-10T00:56:15;6.95;;;3.90;;
3465;SDS011;1747;48.884;9.160;2022-07-10T00:58:43;6.75;;;4.13;;
3465;SDS011;1747;48.884;9.160;2022-07-10T01:01:12;4.90;;;4.40;;
3465;SDS011;1747;48.884;9.160;2022-07-10T01:03:40;4.85;;;4.15;;
3465;SDS011;1747;48.884;9.160;2022-07-10T01:06:06;6.10;;;4.22;;
3465;SDS011;1747;48.884;9.160;2022-07-10T01:08:33;4.50;;;3.70;;
3465;SDS011;1747;48.884;9.160;2022-07-10T01:11:00;5.57;;;4.43;;
3465;SDS011;1747;48.884;9.160;2022-07-10T01:13:27;6.80;;;4.20;;
3465;SDS011;1747;48.884;9.160;2022-07-10T01:15:55;6.47;;;4.28;;
3465;SDS011;1747;48.884;9.160;2022-07-10T01:18:23;10.07;;;4.28;;
3465;SDS011;1747;48.884;9.160;2022-07-10T01:20:52;5.45;;;4.30;;
3465;SDS011;1747;48.884;9.160;2022-07-10T01:23:20;5.05;;;4.45;;
3465;SDS011;1747;48.884;9.160;2022-07-10T01:25:47;7.38;;;4.97;;
3465;SDS011;1747;48.884;9.160;2022-07-10T01:28:14;8.85;;;4.88;;
3465;SDS011;1747;48.884;9.160;2022-07-10T01:30:42;5.93;;;4.43;;
3465;SDS011;1747;48.884;9.160;2022-07-10T01:33:09;7.45;;;4.78;;
3465;SDS011;1747;48.884;9.160;2022-07-10T01:35:36;6.10;;;5.05;;
3465;SDS011;1747;48.884;9.160;2022-07-10T01:38:05;7.20;;;5.45;;
3465;SDS011;1747;48.884;9.160;2022-07-10T01:40:31;7.20;;;5.80;;
3465;SDS011;1747;48.884;9.160;2022-07-10T01:42:58;7.10;;;5.90;;
3465;SDS011;1747;48.884;9.160;2022-07-10T01:45:25;7.25;;;5.57;;
3465;SDS011;1747;48.884;9.160;2022-07-10T01:47:52;10.57;;;5.93;;
3465;SDS011;1747;48.884;9.160;2022-07-10T01:50:19;10.13;;;5.70;;
3465;SDS011;1747;48.884;9.160;2022-07-10T01:52:46;8.13;;;5.45;;
3465;SDS011;1747;48.884;9.160;2022-07-10T01:55:14;7.20;;;6.25;;
3465;SDS011;1747;48.884;9.160;2022-07-10T01:57:41;12.80;;;5.88;;
3465;SDS011;1747;48.884;9.160;2022-07-10T02:00:08;8.45;;;6.45;;
3465;SDS011;1747;48.884;9.160;2022-07-10T02:02:36;7.80;;;5.82;;
3465;SDS011;1747;48.884;9.160;2022-07-10T02:05:03;7.93;;;5.90;;
3465;SDS011;1747;48.884;9.160;2022-07-10T02:07:29;6.97;;;6.10;;
3465;SDS011;1747;48.884;9.160;2022-07-10T02:09:56;6.18;;;5.40;;
3465;SDS011;1747;48.884;9.160;2022-07-10T02:12:24;7.25;;;6.30;;
3465;SDS011;1747;48.884;9.160;2022-07-10T02:14:50;10.27;;;6.25;;
3465;SDS011;1747;48.884;9.160;2022-07-10T02:17:17;9.38;;;6.60;;
3465;SDS011;1747;48.884;9.160;2022-07-10T02:19:44;9.25;;;6.82;;
3465;SDS011;1747;48.884;9.160;2022-07-10T02:22:11;7.55;;;6.85;;
3465;SDS011;1747;48.884;9.160;2022-07-10T02:24:38;8.52;;;7.20;;
3465;SDS011;1747;48.884;9.160;2022-07-10T02:27:05;8.85;;;7.95;;
3465;SDS011;1747;48.884;9.160;2022-07-10T02:29:33;10.23;;;8.05;;
3465;SDS011;1747;48.884;9.160;2022-07-10T02:32:00;9.10;;;8.15;;
3465;SDS011;1747;48.884;9.160;2022-07-10T02:34:27;13.75;;;8.90;;
3465;SDS011;1747;48.884;9.160;2022-07-10T02:36:54;9.73;;;8.60;;
3465;SDS011;1747;48.884;9.160;2022-07-10T02:39:21;10.07;;;8.55;;
3465;SDS011;1747;48.884;9.160;2022-07-10T02:41:48;11.02;;;9.10;;
3465;SDS011;1747;48.884;9.160;2022-07-10T02:44:15;9.70;;;8.70;;
3465;SDS011;1747;48.884;9.160;2022-07-10T02:46:43;11.23;;;8.48;;
3465;SDS011;1747;48.884;9.160;2022-07-10T02:49:10;11.45;;;8.60;;
3465;SDS011;1747;48.884;9.160;2022-07-10T02:51:37;9.90;;;8.27;;
3465;SDS011;1747;48.884;9.160;2022-07-10T02:54:03;10.07;;;8.60;;
3465;SDS011;1747;48.884;9.160;2022-07-10T02:56:32;9.65;;;8.57;;
3465;SDS011;1747;48.884;9.160;2022-07-10T02:59:01;11.25;;;8.40;;
3465;SDS011;1747;48.884;9.160;2022-07-10T03:01:27;11.52;;;7.93;;
3465;SDS011;1747;48.884;9.160;2022-07-10T03:03:56;10.82;;;8.98;;
3465;SDS011;1747;48.884;9.160;2022-07-10T03:06:24;10.27;;;8.07;;
3465;SDS011;1747;48.884;9.160;2022-07-10T03:08:50;9.88;;;8.10;;
3465;SDS011;1747;48.884;9.160;2022-07-10T03:11:17;11.55;;;8.48;;
3465;SDS011;1747;48.884;9.160;2022-07-10T03:13:44;10.18;;;7.95;;
3465;SDS011;1747;48.884;9.160;2022-07-10T03:16:11;9.18;;;7.65;;
3465;SDS011;1747;48.884;9.160;2022-07-10T03:18:38;11.75;;;7.85;;
3465;SDS011;1747;48.884;9.160;2022-07-10T03:21:06;9.30;;;8.23;;
3465;SDS011;1747;48.884;9.160;2022-07-10T03:23:33;8.88;;;7.95;;
3465;SDS011;1747;48.884;9.160;2022-07-10T03:25:59;8.98;;;7.63;;
3465;SDS011;1747;48.884;9.160;2022-07-10T03:30:56;11.25;;;7.65;;
3465;SDS011;1747;48.884;9.160;2022-07-10T03:33:23;10.52;;;7.90;;
3465;SDS011;1747;48.884;9.160;2022-07-10T03:35:50;9.98;;;7.05;;
3465;SDS011;1747;48.884;9.160;2022-07-10T03:38:18;9.50;;;7.07;;
3465;SDS011;1747;48.884;9.160;2022-07-10T03:40:45;10.30;;;7.93;;
3465;SDS011;1747;48.884;9.160;2022-07-10T03:43:13;11.75;;;8.45;;
3465;SDS011;1747;48.884;9.160;2022-07-10T03:45:40;9.13;;;7.85;;
3465;SDS011;1747;48.884;9.160;2022-07-10T03:48:07;9.52;;;7.38;;
3465;SDS011;1747;48.884;9.160;2022-07-10T03:50:34;9.32;;;7.68;;
3465;SDS011;1747;48.884;9.160;2022-07-10T03:53:00;11.45;;;7.28;;
3465;SDS011;1747;48.884;9.160;2022-07-10T03:55:29;9.57;;;7.40;;
3465;SDS011;1747;48.884;9.160;2022-07-10T03:57:56;13.63;;;7.18;;
3465;SDS011;1747;48.884;9.160;2022-07-10T04:00:22;7.47;;;6.68;;
3465;SDS011;1747;48.884;9.160;2022-07-10T04:02:56;7.18;;;6.47;;
3465;SDS011;1747;48.884;9.160;2022-07-10T04:05:24;9.00;;;6.75;;
3465;SDS011;1747;48.884;9.160;2022-07-10T04:07:51;8.07;;;6.95;;
3465;SDS011;1747;48.884;9.160;2022-07-10T04:10:19;9.07;;;6.28;;
3465;SDS011;1747;48.884;9.160;2022-07-10T04:12:48;10.85;;;6.63;;
3465;SDS011;1747;48.884;9.160;2022-07-10T04:15:15;8.20;;;6.32;;
3465;SDS011;1747;48.884;9.160;2022-07-10T04:17:42;6.60;;;5.90;;
3465;SDS011;1747;48.884;9.160;2022-07-10T04:20:09;6.72;;;6.03;;
3465;SDS011;1747;48.884;9.160;2022-07-10T04:22:36;6.25;;;5.60;;
3465;SDS011;1747;48.884;9.160;2022-07-10T04:25:04;9.38;;;5.45;;
3465;SDS011;1747;48.884;9.160;2022-07-10T04:27:31;7.57;;;5.43;;
3465;SDS011;1747;48.884;9.160;2022-07-10T04:30:00;8.85;;;6.18;;
3465;SDS011;1747;48.884;9.160;2022-07-10T04:32:27;8.80;;;6.50;;
3465;SDS011;1747;48.884;9.160;2022-07-10T04:34:54;8.60;;;6.40;;
3465;SDS011;1747;48.884;9.160;2022-07-10T04:37:24;9.05;;;6.18;;
3465;SDS011;1747;48.884;9.160;2022-07-10T04:39:51;8.20;;;5.53;;
3465;SDS011;1747;48.884;9.160;2022-07-10T04:42:17;10.75;;;5.72;;
3465;SDS011;1747;48.884;9.160;2022-07-10T04:44:44;7.35;;;5.50;;
3465;SDS011;1747;48.884;9.160;2022-07-10T04:47:13;6.03;;;5.40;;
3465;SDS011;1747;48.884;9.160;2022-07-10T04:49:40;8.63;;;4.80;;
3465;SDS011;1747;48.884;9.160;2022-07-10T04:52:06;5.18;;;4.68;;
3465;SDS011;1747;48.884;9.160;2022-07-10T04:54:33;6.85;;;4.68;;
3465;SDS011;1747;48.884;9.160;2022-07-10T04:57:00;6.80;;;4.30;;
3465;SDS011;1747;48.884;9.160;2022-07-10T04:59:27;8.60;;;4.72;;
3465;SDS011;1747;48.884;9.160;2022-07-10T05:01:54;6.00;;;4.25;;
3465;SDS011;1747;48.884;9.160;2022-07-10T05:04:22;6.13;;;4.53;;
3465;SDS011;1747;48.884;9.160;2022-07-10T05:06:49;5.35;;;3.75;;
3465;SDS011;1747;48.884;9.160;2022-07-10T05:09:16;6.75;;;3.88;;
3465;SDS011;1747;48.884;9.160;2022-07-10T05:11:44;6.15;;;3.20;;
3465;SDS011;1747;48.884;9.160;2022-07-10T05:14:11;4.85;;;3.30;;
3465;SDS011;1747;48.884;9.160;2022-07-10T05:16:38;5.40;;;3.20;;
3465;SDS011;1747;48.884;9.160;2022-07-10T05:19:05;5.43;;;3.22;;
3465;SDS011;1747;48.884;9.160;2022-07-10T05:21:33;5.90;;;3.53;;
3465;SDS011;1747;48.884;9.160;2022-07-10T05:24:00;3.88;;;3.20;;
3465;SDS011;1747;48.884;9.160;2022-07-10T05:26:27;4.15;;;2.92;;
3465;SDS011;1747;48.884;9.160;2022-07-10T05:28:54;6.38;;;3.10;;
3465;SDS011;1747;48.884;9.160;2022-07-10T05:31:21;3.33;;;2.92;;
3465;SDS011;1747;48.884;9.160;2022-07-10T05:33:47;2.95;;;2.63;;
3465;SDS011;1747;48.884;9.160;2022-07-10T05:36:14;4.97;;;2.75;;
3465;SDS011;1747;48.884;9.160;2022-07-10T05:38:43;6.82;;;3.00;;
3465;SDS011;1747;48.884;9.160;2022-07-10T05:41:09;5.03;;;3.03;;
3465;SDS011;1747;48.884;9.160;2022-07-10T05:43:36;5.38;;;2.95;;
3465;SDS011;1747;48.884;9.160;2022-07-10T05:46:03;4.70;;;3.00;;
3465;SDS011;1747;48.884;9.160;2022-07-10T05:48:30;8.00;;;2.88;;
3465;SDS011;1747;48.884;9.160;2022-07-10T05:50:57;4.03;;;3.22;;
3465;SDS011;1747;48.884;9.160;2022-07-10T05:53:24;3.80;;;2.95;;
3465;SDS011;1747;48.884;9.160;2022-07-10T05:55:52;3.38;;;3.00;;
3465;SDS011;1747;48.884;9.160;2022-07-10T05:58:19;4.70;;;2.70;;
3465;SDS011;1747;48.884;9.160;2022-07-10T06:00:46;4.95;;;3.15;;
3465;SDS011;1747;48.884;9.160;2022-07-10T06:03:14;4.70;;;2.95;;
3465;SDS011;1747;48.884;9.160;2022-07-10T06:05:41;4.45;;;2.70;;
3465;SDS011;1747;48.884;9.160;2022-07-10T06:08:08;5.40;;;2.70;;
3465;SDS011;1747;48.884;9.160;2022-07-10T06:10:36;4.35;;;2.35;;
3465;SDS011;1747;48.884;9.160;2022-07-10T06:13:06;5.47;;;2.45;;
3465;SDS011;1747;48.884;9.160;2022-07-10T06:15:33;4.47;;;2.70;;
3465;SDS011;1747;48.884;9.160;2022-07-10T06:18:00;8.52;;;2.90;;
3465;SDS011;1747;48.884;9.160;2022-07-10T06:20:27;3.45;;;2.42;;
3465;SDS011;1747;48.884;9.160;2022-07-10T06:22:54;4.32;;;2.60;;
3465;SDS011;1747;48.884;9.160;2022-07-10T06:25:20;5.47;;;2.42;;
3465;SDS011;1747;48.884;9.160;2022-07-10T06:27:47;4.35;;;2.65;;
3465;SDS011;1747;48.884;9.160;2022-07-10T06:30:16;5.88;;;2.47;;
3465;SDS011;1747;48.884;9.160;2022-07-10T06:32:43;4.65;;;2.33;;
3465;SDS011;1747;48.884;9.160;2022-07-10T06:35:10;6.68;;;2.30;;
3465;SDS011;1747;48.884;9.160;2022-07-10T06:37:37;3.65;;;2.67;;
3465;SDS011;1747;48.884;9.160;2022-07-10T06:40:04;2.58;;;2.25;;
3465;SDS011;1747;48.884;9.160;2022-07-10T06:42:32;4.40;;;2.35;;
3465;SDS011;1747;48.884;9.160;2022-07-10T06:44:58;5.05;;;2.03;;
3465;SDS011;1747;48.884;9.160;2022-07-10T06:47:27;3.70;;;2.17;;
3465;SDS011;1747;48.884;9.160;2022-07-10T06:50:11;2.45;;;1.85;;
3465;SDS011;1747;48.884;9.160;2022-07-10T06:52:39;6.78;;;2.25;;
3465;SDS011;1747;48.884;9.160;2022-07-10T06:55:06;3.42;;;2.10;;
3465;SDS011;1747;48.884;9.160;2022-07-10T06:57:33;3.42;;;2.10;;
3465;SDS011;1747;48.884;9.160;2022-07-10T07:00:00;4.57;;;2.28;;
3465;SDS011;1747;48.884;9.160;2022-07-10T07:02:28;3.28;;;1.58;;
3465;SDS011;1747;48.884;9.160;2022-07-10T07:04:55;5.95;;;1.80;;
3465;SDS011;1747;48.884;9.160;2022-07-10T07:07:22;3.55;;;1.58;;
3465;SDS011;1747;48.884;9.160;2022-07-10T07:09:49;3.08;;;1.80;;
3465;SDS011;1747;48.884;9.160;2022-07-10T07:12:15;4.93;;;1.80;;
3465;SDS011;1747;48.884;9.160;2022-07-10T07:14:43;3.33;;;1.77;;
3465;SDS011;1747;48.884;9.160;2022-07-10T07:17:10;2.50;;;1.60;;
3465;SDS011;1747;48.884;9.160;2022-07-10T07:19:41;5.25;;;1.80;;
3465;SDS011;1747;48.884;9.160;2022-07-10T07:22:25;3.08;;;1.50;;
3465;SDS011;1747;48.884;9.160;2022-07-10T07:25:09;5.88;;;2.13;;
3465;SDS011;1747;48.884;9.160;2022-07-10T07:27:38;4.50;;;2.15;;
3465;SDS011;1747;48.884;9.160;2022-07-10T07:30:05;3.25;;;1.50;;
3465;SDS011;1747;48.884;9.160;2022-07-10T07:32:35;4.25;;;1.90;;
3465;SDS011;1747;48.884;9.160;2022-07-10T07:35:05;5.78;;;1.80;;
3465;SDS011;1747;48.884;9.160;2022-07-10T07:37:35;2.25;;;1.77;;
3465;SDS011;1747;48.884;9.160;2022-07-10T07:40:04;6.15;;;1.83;;
3465;SDS011;1747;48.884;9.160;2022-07-10T07:42:32;5.18;;;1.85;;
3465;SDS011;1747;48.884;9.160;2022-07-10T07:44:59;3.40;;;1.85;;
3465;SDS011;1747;48.884;9.160;2022-07-10T07:47:26;6.30;;;1.77;;
3465;SDS011;1747;48.884;9.160;2022-07-10T07:49:53;3.25;;;1.50;;
3465;SDS011;1747;48.884;9.160;2022-07-10T07:52:21;5.22;;;1.70;;
3465;SDS011;1747;48.884;9.160;2022-07-10T07:54:48;4.45;;;1.70;;
3465;SDS011;1747;48.884;9.160;2022-07-10T07:57:15;3.08;;;1.45;;
3465;SDS011;1747;48.884;9.160;2022-07-10T07:59:42;3.90;;;1.50;;
3465;SDS011;1747;48.884;9.160;2022-07-10T08:02:09;2.97;;;1.30;;
3465;SDS011;1747;48.884;9.160;2022-07-10T08:04:36;2.83;;;1.30;;
3465;SDS011;1747;48.884;9.160;2022-07-10T08:07:03;6.38;;;1.52;;
3465;SDS011;1747;48.884;9.160;2022-07-10T08:09:31;3.03;;;1.50;;
3465;SDS011;1747;48.884;9.160;2022-07-10T08:11:58;5.57;;;1.50;;
3465;SDS011;1747;48.884;9.160;2022-07-10T08:14:25;3.53;;;1.40;;
3465;SDS011;1747;48.884;9.160;2022-07-10T08:16:52;5.53;;;1.50;;
3465;SDS011;1747;48.884;9.160;2022-07-10T08:19:19;3.50;;;1.60;;
3465;SDS011;1747;48.884;9.160;2022-07-10T08:21:46;2.38;;;1.30;;
3465;SDS011;1747;48.884;9.160;2022-07-10T08:24:12;3.40;;;1.52;;
3465;SDS011;1747;48.884;9.160;2022-07-10T08:26:41;5.63;;;1.70;;
3465;SDS011;1747;48.884;9.160;2022-07-10T08:29:08;3.72;;;1.50;;
3465;SDS011;1747;48.884;9.160;2022-07-10T08:31:35;3.20;;;1.30;;
3465;SDS011;1747;48.884;9.160;2022-07-10T08:34:02;3.90;;;1.50;;
3465;SDS011;1747;48.884;9.160;2022-07-10T08:36:29;4.57;;;1.33;;
3465;SDS011;1747;48.884;9.160;2022-07-10T08:38:56;2.80;;;1.10;;
3465;SDS011;1747;48.884;9.160;2022-07-10T08:41:24;6.53;;;1.27;;
3465;SDS011;1747;48.884;9.160;2022-07-10T08:43:53;3.05;;;1.35;;
3465;SDS011;1747;48.884;9.160;2022-07-10T08:46:20;1.73;;;1.40;;
3465;SDS011;1747;48.884;9.160;2022-07-10T08:48:48;2.35;;;1.02;;
3465;SDS011;1747;48.884;9.160;2022-07-10T08:51:20;2.60;;;1.42;;
3465;SDS011;1747;48.884;9.160;2022-07-10T08:53:55;4.18;;;1.30;;
3465;SDS011;1747;48.884;9.160;2022-07-10T08:56:23;3.70;;;1.55;;
3465;SDS011;1747;48.884;9.160;2022-07-10T08:58:50;2.83;;;1.20;;
3465;SDS011;1747;48.884;9.160;2022-07-10T09:01:20;3.72;;;1.40;;
3465;SDS011;1747;48.884;9.160;2022-07-10T09:03:48;2.05;;;1.10;;
3465;SDS011;1747;48.884;9.160;2022-07-10T09:06:15;2.40;;;1.20;;
3465;SDS011;1747;48.884;9.160;2022-07-10T09:08:57;1.45;;;1.10;;
3465;SDS011;1747;48.884;9.160;2022-07-10T09:11:28;2.58;;;1.27;;
3465;SDS011;1747;48.884;9.160;2022-07-10T09:13:57;3.45;;;1.20;;
3465;SDS011;1747;48.884;9.160;2022-07-10T09:16:25;2.67;;;1.10;;
3465;SDS011;1747;48.884;9.160;2022-07-10T09:18:54;4.18;;;1.20;;
3465;SDS011;1747;48.884;9.160;2022-07-10T09:21:21;2.75;;;1.38;;
3465;SDS011;1747;48.884;9.160;2022-07-10T09:23:48;3.08;;;1.05;;
3465;SDS011;1747;48.884;9.160;2022-07-10T09:26:15;2.75;;;1.00;;
3465;SDS011;1747;48.884;9.160;2022-07-10T09:28:43;3.33;;;1.35;;
3465;SDS011;1747;48.884;9.160;2022-07-10T09:31:11;3.10;;;1.17;;
3465;SDS011;1747;48.884;9.160;2022-07-10T09:36:13;2.95;;;1.02;;
3465;SDS011;1747;48.884;9.160;2022-07-10T09:38:53;4.93;;;1.55;;
3465;SDS011;1747;48.884;9.160;2022-07-10T09:41:23;2.90;;;1.00;;
3465;SDS011;1747;48.884;9.160;2022-07-10T09:43:52;4.78;;;1.60;;
3465;SDS011;1747;48.884;9.160;2022-07-10T09:46:22;6.15;;;1.50;;
3465;SDS011;1747;48.884;9.160;2022-07-10T09:49:03;4.85;;;1.20;;
3465;SDS011;1747;48.884;9.160;2022-07-10T09:51:32;4.18;;;1.20;;
3465;SDS011;1747;48.884;9.160;2022-07-10T09:54:00;2.78;;;1.23;;
3465;SDS011;1747;48.884;9.160;2022-07-10T09:56:30;3.40;;;1.40;;
3465;SDS011;1747;48.884;9.160;2022-07-10T09:59:00;5.85;;;1.55;;
3465;SDS011;1747;48.884;9.160;2022-07-10T10:01:32;2.33;;;1.20;;
3465;SDS011;1747;48.884;9.160;2022-07-10T10:04:01;1.50;;;1.00;;
3465;SDS011;1747;48.884;9.160;2022-07-10T10:06:30;5.57;;;1.35;;
3465;SDS011;1747;48.884;9.160;2022-07-10T10:09:02;3.42;;;1.20;;
3465;SDS011;1747;48.884;9.160;2022-07-10T10:11:31;4.47;;;1.10;;
3465;SDS011;1747;48.884;9.160;2022-07-10T10:14:01;3.40;;;1.20;;
3465;SDS011;1747;48.884;9.160;2022-07-10T10:16:28;3.83;;;1.20;;
3465;SDS011;1747;48.884;9.160;2022-07-10T10:18:57;2.28;;;1.20;;
3465;SDS011;1747;48.884;9.160;2022-07-10T10:21:42;3.00;;;1.20;;
3465;SDS011;1747;48.884;9.160;2022-07-10T10:24:10;2.03;;;1.17;;
3465;SDS011;1747;48.884;9.160;2022-07-10T10:26:39;1.42;;;1.00;;
3465;SDS011;1747;48.884;9.160;2022-07-10T10:29:07;3.10;;;1.20;;
3465;SDS011;1747;48.884;9.160;2022-07-10T10:31:36;5.78;;;1.30;;
3465;SDS011;1747;48.884;9.160;2022-07-10T10:34:05;3.78;;;1.30;;
3465;SDS011;1747;48.884;9.160;2022-07-10T10:39:19;2.10;;;1.20;;
3465;SDS011;1747;48.884;9.160;2022-07-10T10:41:47;4.15;;;1.35;;
3465;SDS011;1747;48.884;9.160;2022-07-10T10:44:21;4.35;;;2.88;;
3465;SDS011;1747;48.884;9.160;2022-07-10T10:47:03;2.60;;;1.40;;
3465;SDS011;1747;48.884;9.160;2022-07-10T10:49:49;2.78;;;1.17;;
3465;SDS011;1747;48.884;9.160;2022-07-10T10:52:17;2.78;;;1.15;;
3465;SDS011;1747;48.884;9.160;2022-07-10T10:55:02;4.10;;;1.20;;
3465;SDS011;1747;48.884;9.160;2022-07-10T10:57:37;4.40;;;1.50;;
3465;SDS011;1747;48.884;9.160;2022-07-10T11:00:31;2.97;;;1.25;;
3465;SDS011;1747;48.884;9.160;2022-07-10T11:03:12;2.85;;;1.13;;
3465;SDS011;1747;48.884;9.160;2022-07-10T11:05:45;6.93;;;1.33;;
3465;SDS011;1747;48.884;9.160;2022-07-10T11:08:14;2.75;;;0.95;;
3465;SDS011;1747;48.884;9.160;2022-07-10T11:11:01;2.45;;;1.13;;
3465;SDS011;1747;48.884;9.160;2022-07-10T11:13:48;2.67;;;1.30;;
3465;SDS011;1747;48.884;9.160;2022-07-10T11:16:16;1.48;;;0.98;;
3465;SDS011;1747;48.884;9.160;2022-07-10T11:18:43;4.50;;;1.25;;
3465;SDS011;1747;48.884;9.160;2022-07-10T11:21:13;3.83;;;1.35;;
3465;SDS011;1747;48.884;9.160;2022-07-10T11:23:51;4.30;;;1.08;;
3465;SDS011;1747;48.884;9.160;2022-07-10T11:26:29;1.20;;;1.10;;
3465;SDS011;1747;48.884;9.160;2022-07-10T11:29:02;4.85;;;1.10;;
3465;SDS011;1747;48.884;9.160;2022-07-10T11:31:31;3.00;;;1.23;;
3465;SDS011;1747;48.884;9.160;2022-07-10T11:34:03;2.47;;;1.00;;
3465;SDS011;1747;48.884;9.160;2022-07-10T11:36:31;3.75;;;1.00;;
3465;SDS011;1747;48.884;9.160;2022-07-10T11:39:00;1.92;;;1.05;;
3465;SDS011;1747;48.884;9.160;2022-07-10T11:41:29;2.95;;;1.10;;
3465;SDS011;1747;48.884;9.160;2022-07-10T11:43:57;2.95;;;0.98;;
3465;SDS011;1747;48.884;9.160;2022-07-10T11:46:26;1.65;;;1.10;;
3465;SDS011;1747;48.884;9.160;2022-07-10T11:48:55;2.60;;;0.90;;
3465;SDS011;1747;48.884;9.160;2022-07-10T11:51:24;3.47;;;1.00;;
3465;SDS011;1747;48.884;9.160;2022-07-10T11:53:53;3.90;;;0.90;;
3465;SDS011;1747;48.884;9.160;2022-07-10T11:56:22;2.13;;;1.10;;
3465;SDS011;1747;48.884;9.160;2022-07-10T11:58:56;2.13;;;1.05;;
3465;SDS011;1747;48.884;9.160;2022-07-10T12:01:23;2.47;;;0.90;;
3465;SDS011;1747;48.884;9.160;2022-07-10T12:03:53;1.30;;;0.80;;
3465;SDS011;1747;48.884;9.160;2022-07-10T12:06:22;3.65;;;1.00;;
3465;SDS011;1747;48.884;9.160;2022-07-10T12:08:50;4.95;;;1.27;;
3465;SDS011;1747;48.884;9.160;2022-07-10T12:11:18;2.25;;;0.95;;
3465;SDS011;1747;48.884;9.160;2022-07-10T12:13:47;1.98;;;0.93;;
3465;SDS011;1747;48.884;9.160;2022-07-10T12:16:15;3.00;;;0.77;;
3465;SDS011;1747;48.884;9.160;2022-07-10T12:18:42;2.95;;;0.82;;
3465;SDS011;1747;48.884;9.160;2022-07-10T12:21:11;9.13;;;1.40;;
3465;SDS011;1747;48.884;9.160;2022-07-10T12:23:40;2.08;;;1.08;;
3465;SDS011;1747;48.884;9.160;2022-07-10T12:26:10;1.38;;;0.65;;
3465;SDS011;1747;48.884;9.160;2022-07-10T12:28:52;2.97;;;1.15;;
3465;SDS011;1747;48.884;9.160;2022-07-10T12:31:21;4.28;;;0.90;;
3465;SDS011;1747;48.884;9.160;2022-07-10T12:33:52;1.77;;;0.80;;
3465;SDS011;1747;48.884;9.160;2022-07-10T12:36:22;3.03;;;0.82;;
3465;SDS011;1747;48.884;9.160;2022-07-10T12:38:53;1.90;;;1.00;;
3465;SDS011;1747;48.884;9.160;2022-07-10T12:41:22;2.10;;;0.98;;
3465;SDS011;1747;48.884;9.160;2022-07-10T12:43:52;2.40;;;0.90;;
3465;SDS011;1747;48.884;9.160;2022-07-10T12:46:20;2.30;;;0.88;;
3465;SDS011;1747;48.884;9.160;2022-07-10T12:49:00;1.48;;;0.60;;
3465;SDS011;1747;48.884;9.160;2022-07-10T12:51:32;3.22;;;0.90;;
3465;SDS011;1747;48.884;9.160;2022-07-10T12:53:59;4.45;;;1.05;;
3465;SDS011;1747;48.884;9.160;2022-07-10T12:56:30;2.58;;;0.98;;
3465;SDS011;1747;48.884;9.160;2022-07-10T12:59:01;2.28;;;0.88;;
3465;SDS011;1747;48.884;9.160;2022-07-10T13:01:38;2.22;;;0.75;;
3465;SDS011;1747;48.884;9.160;2022-07-10T13:04:07;1.73;;;0.90;;
3465;SDS011;1747;48.884;9.160;2022-07-10T13:06:35;3.30;;;0.90;;
3465;SDS011;1747;48.884;9.160;2022-07-10T13:09:02;1.92;;;0.80;;
3465;SDS011;1747;48.884;9.160;2022-07-10T13:11:43;3.25;;;0.80;;
3465;SDS011;1747;48.884;9.160;2022-07-10T13:14:11;2.80;;;0.80;;
3465;SDS011;1747;48.884;9.160;2022-07-10T13:16:38;3.75;;;1.10;;
3465;SDS011;1747;48.884;9.160;2022-07-10T13:19:05;3.28;;;1.00;;
3465;SDS011;1747;48.884;9.160;2022-07-10T13:21:33;1.60;;;0.80;;
3465;SDS011;1747;48.884;9.160;2022-07-10T13:24:00;3.00;;;1.08;;
3465;SDS011;1747;48.884;9.160;2022-07-10T13:26:28;3.58;;;1.10;;
3465;SDS011;1747;48.884;9.160;2022-07-10T13:28:55;2.10;;;1.00;;
3465;SDS011;1747;48.884;9.160;2022-07-10T13:31:24;2.38;;;0.90;;
3465;SDS011;1747;48.884;9.160;2022-07-10T13:33:51;2.38;;;1.10;;
3465;SDS011;1747;48.884;9.160;2022-07-10T13:36:18;2.78;;;0.80;;
3465;SDS011;1747;48.884;9.160;2022-07-10T13:38:44;1.95;;;0.90;;
3465;SDS011;1747;48.884;9.160;2022-07-10T13:41:13;2.65;;;1.00;;
3465;SDS011;1747;48.884;9.160;2022-07-10T13:43:40;1.67;;;1.00;;
3465;SDS011;1747;48.884;9.160;2022-07-10T13:46:07;2.03;;;0.85;;
3465;SDS011;1747;48.884;9.160;2022-07-10T13:48:35;2.65;;;0.90;;
3465;SDS011;1747;48.884;9.160;2022-07-10T13:51:02;3.53;;;1.13;;
3465;SDS011;1747;48.884;9.160;2022-07-10T13:53:29;1.92;;;0.90;;
3465;SDS011;1747;48.884;9.160;2022-07-10T13:55:56;1.58;;;1.00;;
3465;SDS011;1747;48.884;9.160;2022-07-10T13:58:24;2.63;;;0.73;;
3465;SDS011;1747;48.884;9.160;2022-07-10T14:00:51;3.58;;;1.00;;
3465;SDS011;1747;48.884;9.160;2022-07-10T14:03:18;2.20;;;0.73;;
3465;SDS011;1747;48.884;9.160;2022-07-10T14:05:46;5.45;;;1.10;;
3465;SDS011;1747;48.884;9.160;2022-07-10T14:08:13;1.77;;;0.98;;
3465;SDS011;1747;48.884;9.160;2022-07-10T14:10:40;1.88;;;1.00;;
3465;SDS011;1747;48.884;9.160;2022-07-10T14:13:07;2.40;;;0.73;;
3465;SDS011;1747;48.884;9.160;2022-07-10T14:15:34;2.25;;;1.00;;
3465;SDS011;1747;48.884;9.160;2022-07-10T14:18:01;2.15;;;0.80;;
3465;SDS011;1747;48.884;9.160;2022-07-10T14:20:28;2.17;;;1.08;;
3465;SDS011;1747;48.884;9.160;2022-07-10T14:23:18;2.28;;;0.80;;
3465;SDS011;1747;48.884;9.160;2022-07-10T14:25:46;1.90;;;0.77;;
3465;SDS011;1747;48.884;9.160;2022-07-10T14:28:13;7.50;;;1.50;;
3465;SDS011;1747;48.884;9.160;2022-07-10T14:30:40;2.58;;;0.73;;
3465;SDS011;1747;48.884;9.160;2022-07-10T14:33:08;1.13;;;0.80;;
3465;SDS011;1747;48.884;9.160;2022-07-10T14:35:35;2.65;;;0.93;;
3465;SDS011;1747;48.884;9.160;2022-07-10T14:38:02;2.55;;;0.90;;
3465;SDS011;1747;48.884;9.160;2022-07-10T14:40:30;1.92;;;0.80;;
3465;SDS011;1747;48.884;9.160;2022-07-10T14:42:57;1.27;;;0.70;;
3465;SDS011;1747;48.884;9.160;2022-07-10T14:45:24;4.30;;;1.00;;
3465;SDS011;1747;48.884;9.160;2022-07-10T14:47:51;3.20;;;0.90;;
3465;SDS011;1747;48.884;9.160;2022-07-10T14:50:19;2.70;;;1.00;;
3465;SDS011;1747;48.884;9.160;2022-07-10T14:52:46;1.98;;;0.90;;
3465;SDS011;1747;48.884;9.160;2022-07-10T14:55:13;1.63;;;0.82;;
3465;SDS011;1747;48.884;9.160;2022-07-10T14:57:41;2.58;;;0.85;;
3465;SDS011;1747;48.884;9.160;2022-07-10T15:00:09;2.17;;;1.10;;
3465;SDS011;1747;48.884;9.160;2022-07-10T15:02:37;2.17;;;0.85;;
3465;SDS011;1747;48.884;9.160;2022-07-10T15:05:04;1.60;;;0.77;;
3465;SDS011;1747;48.884;9.160;2022-07-10T15:07:32;2.33;;;1.05;;
3465;SDS011;1747;48.884;9.160;2022-07-10T15:09:58;1.55;;;0.90;;
3465;SDS011;1747;48.884;9.160;2022-07-10T15:12:25;1.38;;;0.82;;
3465;SDS011;1747;48.884;9.160;2022-07-10T15:14:54;3.70;;;1.10;;
3465;SDS011;1747;48.884;9.160;2022-07-10T15:17:20;3.13;;;1.00;;
3465;SDS011;1747;48.884;9.160;2022-07-10T15:19:47;1.83;;;0.88;;
3465;SDS011;1747;48.884;9.160;2022-07-10T15:22:14;0.80;;;0.80;;
3465;SDS011;1747;48.884;9.160;2022-07-10T15:24:43;2.85;;;1.00;;
3465;SDS011;1747;48.884;9.160;2022-07-10T15:27:09;0.80;;;0.73;;
3465;SDS011;1747;48.884;9.160;2022-07-10T15:29:38;4.50;;;1.02;;
3465;SDS011;1747;48.884;9.160;2022-07-10T15:32:07;1.13;;;0.80;;